sensor_id;sensor_type;location;lat;lon;timestamp;P1;durP1;ratioP1;P2;durP2;ratioP2
22922;SDS011;11627;51.322;22.816;2023-02-11T00:00:17;50.40;;;19.27;;
22922;SDS011;11627;51.322;22.816;2023-02-11T00:02:43;42.33;;;16.08;;
22922;SDS011;11627;51.322;22.816;2023-02-11T00:05:08;49.65;;;17.88;;
22922;SDS011;11627;51.322;22.816;2023-02-11T00:07:34;47.85;;;18.17;;
22922;SDS011;11627;51.322;22.816;2023-02-11T00:10:00;44.90;;;17.42;;
22922;SDS011;11627;51.322;22.816;2023-02-11T00:12:27;49.83;;;18.52;;
22922;SDS011;11627;51.322;22.816;2023-02-11T00:14:53;49.90;;;18.33;;
22922;SDS011;11627;51.322;22.816;2023-02-11T00:17:18;44.55;;;18.75;;
22922;SDS011;11627;51.322;22.816;2023-02-11T00:19:47;45.20;;;17.77;;
22922;SDS011;11627;51.322;22.816;2023-02-11T00:22:14;48.83;;;18.88;;
22922;SDS011;11627;51.322;22.816;2023-02-11T00:24:41;48.78;;;18.65;;
22922;SDS011;11627;51.322;22.816;2023-02-11T00:27:06;42.97;;;18.10;;
22922;SDS011;11627;51.322;22.816;2023-02-11T00:29:33;49.97;;;19.30;;
22922;SDS011;11627;51.322;22.816;2023-02-11T00:32:00;58.35;;;19.30;;
22922;SDS011;11627;51.322;22.816;2023-02-11T00:34:32;48.38;;;17.67;;
22922;SDS011;11627;51.322;22.816;2023-02-11T00:37:00;56.25;;;19.73;;
22922;SDS011;11627;51.322;22.816;2023-02-11T00:39:26;45.15;;;19.13;;
22922;SDS011;11627;51.322;22.816;2023-02-11T00:41:53;43.30;;;17.70;;
22922;SDS011;11627;51.322;22.816;2023-02-11T00:44:18;55.88;;;21.33;;
22922;SDS011;11627;51.322;22.816;2023-02-11T00:46:45;53.80;;;20.98;;
22922;SDS011;11627;51.322;22.816;2023-02-11T00:49:11;52.65;;;20.70;;
22922;SDS011;11627;51.322;22.816;2023-02-11T00:51:37;48.58;;;19.23;;
22922;SDS011;11627;51.322;22.816;2023-02-11T00:54:03;45.13;;;18.85;;
22922;SDS011;11627;51.322;22.816;2023-02-11T00:56:29;47.30;;;18.60;;
22922;SDS011;11627;51.322;22.816;2023-02-11T00:58:55;50.17;;;18.58;;
22922;SDS011;11627;51.322;22.816;2023-02-11T01:01:21;47.67;;;17.95;;
22922;SDS011;11627;51.322;22.816;2023-02-11T01:03:47;43.22;;;19.00;;
22922;SDS011;11627;51.322;22.816;2023-02-11T01:06:12;48.28;;;18.67;;
22922;SDS011;11627;51.322;22.816;2023-02-11T01:08:38;46.50;;;19.42;;
22922;SDS011;11627;51.322;22.816;2023-02-11T01:11:10;47.95;;;18.85;;
22922;SDS011;11627;51.322;22.816;2023-02-11T01:13:38;55.72;;;18.75;;
22922;SDS011;11627;51.322;22.816;2023-02-11T01:16:07;55.13;;;23.25;;
22922;SDS011;11627;51.322;22.816;2023-02-11T01:18:34;49.47;;;20.27;;
22922;SDS011;11627;51.322;22.816;2023-02-11T01:21:00;44.35;;;19.30;;
22922;SDS011;11627;51.322;22.816;2023-02-11T01:23:26;48.38;;;18.02;;
22922;SDS011;11627;51.322;22.816;2023-02-11T01:25:51;46.60;;;20.77;;
22922;SDS011;11627;51.322;22.816;2023-02-11T01:28:20;52.25;;;19.52;;
22922;SDS011;11627;51.322;22.816;2023-02-11T01:30:48;43.25;;;17.38;;
22922;SDS011;11627;51.322;22.816;2023-02-11T01:33:13;50.55;;;19.63;;
22922;SDS011;11627;51.322;22.816;2023-02-11T01:35:41;43.95;;;17.38;;
22922;SDS011;11627;51.322;22.816;2023-02-11T01:38:11;47.75;;;18.17;;
22922;SDS011;11627;51.322;22.816;2023-02-11T01:40:45;41.17;;;17.77;;
22922;SDS011;11627;51.322;22.816;2023-02-11T01:43:16;45.85;;;18.08;;
22922;SDS011;11627;51.322;22.816;2023-02-11T01:48:16;42.97;;;17.70;;
22922;SDS011;11627;51.322;22.816;2023-02-11T01:50:48;43.35;;;16.60;;
22922;SDS011;11627;51.322;22.816;2023-02-11T01:53:18;40.65;;;15.98;;
22922;SDS011;11627;51.322;22.816;2023-02-11T01:56:02;44.42;;;16.33;;
22922;SDS011;11627;51.322;22.816;2023-02-11T01:58:48;35.13;;;14.82;;
22922;SDS011;11627;51.322;22.816;2023-02-11T02:01:16;41.13;;;16.27;;
22922;SDS011;11627;51.322;22.816;2023-02-11T02:03:49;38.90;;;16.90;;
22922;SDS011;11627;51.322;22.816;2023-02-11T02:06:23;37.92;;;16.38;;
22922;SDS011;11627;51.322;22.816;2023-02-11T02:08:55;40.70;;;16.60;;
22922;SDS011;11627;51.322;22.816;2023-02-11T02:11:26;38.40;;;15.88;;
22922;SDS011;11627;51.322;22.816;2023-02-11T02:13:51;37.50;;;15.60;;
22922;SDS011;11627;51.322;22.816;2023-02-11T02:16:18;41.33;;;15.52;;
22922;SDS011;11627;51.322;22.816;2023-02-11T02:27:44;39.17;;;16.52;;
22922;SDS011;11627;51.322;22.816;2023-02-11T02:36:06;49.50;;;18.15;;
22922;SDS011;11627;51.322;22.816;2023-02-11T02:38:58;41.22;;;16.42;;
22922;SDS011;11627;51.322;22.816;2023-02-11T02:41:28;35.75;;;15.43;;
22922;SDS011;11627;51.322;22.816;2023-02-11T02:43:56;38.13;;;15.05;;
22922;SDS011;11627;51.322;22.816;2023-02-11T02:46:27;49.08;;;17.13;;
22922;SDS011;11627;51.322;22.816;2023-02-11T02:48:55;34.53;;;14.35;;
22922;SDS011;11627;51.322;22.816;2023-02-11T02:51:38;37.25;;;14.80;;
22922;SDS011;11627;51.322;22.816;2023-02-11T02:54:43;40.65;;;16.58;;
22922;SDS011;11627;51.322;22.816;2023-02-11T03:00:42;39.50;;;16.35;;
22922;SDS011;11627;51.322;22.816;2023-02-11T03:03:34;36.85;;;16.02;;
22922;SDS011;11627;51.322;22.816;2023-02-11T03:09:03;36.85;;;16.75;;
22922;SDS011;11627;51.322;22.816;2023-02-11T03:11:34;40.95;;;15.73;;
22922;SDS011;11627;51.322;22.816;2023-02-11T03:14:01;37.63;;;15.77;;
22922;SDS011;11627;51.322;22.816;2023-02-11T03:16:28;42.60;;;16.35;;
22922;SDS011;11627;51.322;22.816;2023-02-11T03:19:02;40.25;;;17.67;;
22922;SDS011;11627;51.322;22.816;2023-02-11T03:21:32;33.58;;;14.20;;
22922;SDS011;11627;51.322;22.816;2023-02-11T03:24:02;40.65;;;15.00;;
22922;SDS011;11627;51.322;22.816;2023-02-11T03:32:08;35.85;;;15.38;;
22922;SDS011;11627;51.322;22.816;2023-02-11T03:34:56;39.33;;;15.45;;
22922;SDS011;11627;51.322;22.816;2023-02-11T03:40:31;44.70;;;16.10;;
22922;SDS011;11627;51.322;22.816;2023-02-11T03:43:43;37.97;;;17.92;;
22922;SDS011;11627;51.322;22.816;2023-02-11T03:45:52;37.97;;;16.13;;
22922;SDS011;11627;51.322;22.816;2023-02-11T03:48:24;46.22;;;17.50;;
22922;SDS011;11627;51.322;22.816;2023-02-11T03:51:04;38.85;;;17.02;;
22922;SDS011;11627;51.322;22.816;2023-02-11T03:53:32;42.95;;;15.30;;
22922;SDS011;11627;51.322;22.816;2023-02-11T03:55:59;38.35;;;15.20;;
22922;SDS011;11627;51.322;22.816;2023-02-11T03:58:29;33.42;;;13.70;;
22922;SDS011;11627;51.322;22.816;2023-02-11T04:00:54;36.85;;;13.48;;
22922;SDS011;11627;51.322;22.816;2023-02-11T04:03:21;38.53;;;13.77;;
22922;SDS011;11627;51.322;22.816;2023-02-11T04:05:47;39.38;;;14.52;;
22922;SDS011;11627;51.322;22.816;2023-02-11T04:08:12;31.70;;;13.93;;
22922;SDS011;11627;51.322;22.816;2023-02-11T04:10:38;40.47;;;16.20;;
22922;SDS011;11627;51.322;22.816;2023-02-11T04:13:04;37.72;;;15.05;;
22922;SDS011;11627;51.322;22.816;2023-02-11T04:15:29;42.40;;;17.95;;
22922;SDS011;11627;51.322;22.816;2023-02-11T04:17:55;46.03;;;18.67;;
22922;SDS011;11627;51.322;22.816;2023-02-11T04:20:22;48.80;;;18.15;;
22922;SDS011;11627;51.322;22.816;2023-02-11T04:22:48;52.25;;;19.58;;
22922;SDS011;11627;51.322;22.816;2023-02-11T04:25:13;48.78;;;18.52;;
22922;SDS011;11627;51.322;22.816;2023-02-11T04:27:39;42.72;;;18.58;;
22922;SDS011;11627;51.322;22.816;2023-02-11T04:30:06;46.70;;;18.88;;
22922;SDS011;11627;51.322;22.816;2023-02-11T04:32:34;41.00;;;17.80;;
22922;SDS011;11627;51.322;22.816;2023-02-11T04:34:59;45.30;;;17.50;;
22922;SDS011;11627;51.322;22.816;2023-02-11T04:37:26;44.42;;;18.23;;
22922;SDS011;11627;51.322;22.816;2023-02-11T04:39:51;45.15;;;20.38;;
22922;SDS011;11627;51.322;22.816;2023-02-11T04:42:17;45.75;;;18.33;;
22922;SDS011;11627;51.322;22.816;2023-02-11T04:44:42;49.40;;;21.25;;
22922;SDS011;11627;51.322;22.816;2023-02-11T04:47:08;50.58;;;19.10;;
22922;SDS011;11627;51.322;22.816;2023-02-11T04:49:35;47.50;;;17.17;;
22922;SDS011;11627;51.322;22.816;2023-02-11T04:52:02;47.95;;;19.10;;
22922;SDS011;11627;51.322;22.816;2023-02-11T04:54:28;39.83;;;18.42;;
22922;SDS011;11627;51.322;22.816;2023-02-11T04:56:54;47.55;;;17.85;;
22922;SDS011;11627;51.322;22.816;2023-02-11T04:59:20;49.25;;;19.23;;
22922;SDS011;11627;51.322;22.816;2023-02-11T05:01:45;45.70;;;19.80;;
22922;SDS011;11627;51.322;22.816;2023-02-11T05:04:11;51.15;;;18.90;;
22922;SDS011;11627;51.322;22.816;2023-02-11T05:06:38;41.95;;;17.35;;
22922;SDS011;11627;51.322;22.816;2023-02-11T05:09:04;41.72;;;17.88;;
22922;SDS011;11627;51.322;22.816;2023-02-11T05:11:29;41.53;;;17.00;;
22922;SDS011;11627;51.322;22.816;2023-02-11T05:13:55;42.10;;;17.73;;
22922;SDS011;11627;51.322;22.816;2023-02-11T05:16:22;44.50;;;18.45;;
22922;SDS011;11627;51.322;22.816;2023-02-11T05:18:47;30.52;;;13.27;;
22922;SDS011;11627;51.322;22.816;2023-02-11T05:21:15;36.85;;;15.80;;
22922;SDS011;11627;51.322;22.816;2023-02-11T05:23:43;33.30;;;15.88;;
22922;SDS011;11627;51.322;22.816;2023-02-11T05:26:09;35.63;;;16.67;;
22922;SDS011;11627;51.322;22.816;2023-02-11T05:28:36;36.80;;;15.75;;
22922;SDS011;11627;51.322;22.816;2023-02-11T05:31:02;36.05;;;16.42;;
22922;SDS011;11627;51.322;22.816;2023-02-11T05:33:29;39.97;;;16.10;;
22922;SDS011;11627;51.322;22.816;2023-02-11T05:35:59;38.67;;;15.75;;
22922;SDS011;11627;51.322;22.816;2023-02-11T05:38:30;47.03;;;17.33;;
22922;SDS011;11627;51.322;22.816;2023-02-11T05:40:55;40.58;;;16.95;;
22922;SDS011;11627;51.322;22.816;2023-02-11T05:43:21;43.90;;;19.10;;
22922;SDS011;11627;51.322;22.816;2023-02-11T05:45:47;36.83;;;16.20;;
22922;SDS011;11627;51.322;22.816;2023-02-11T05:48:15;43.38;;;17.45;;
22922;SDS011;11627;51.322;22.816;2023-02-11T05:50:40;41.38;;;16.23;;
22922;SDS011;11627;51.322;22.816;2023-02-11T05:53:06;39.40;;;17.27;;
22922;SDS011;11627;51.322;22.816;2023-02-11T05:55:32;38.47;;;16.35;;
22922;SDS011;11627;51.322;22.816;2023-02-11T05:57:58;34.78;;;16.35;;
22922;SDS011;11627;51.322;22.816;2023-02-11T06:00:23;38.55;;;17.30;;
22922;SDS011;11627;51.322;22.816;2023-02-11T06:02:49;40.45;;;17.65;;
22922;SDS011;11627;51.322;22.816;2023-02-11T06:05:15;34.33;;;16.45;;
22922;SDS011;11627;51.322;22.816;2023-02-11T06:07:40;40.50;;;16.92;;
22922;SDS011;11627;51.322;22.816;2023-02-11T06:10:07;39.25;;;17.60;;
22922;SDS011;11627;51.322;22.816;2023-02-11T06:12:33;37.60;;;16.10;;
22922;SDS011;11627;51.322;22.816;2023-02-11T06:15:00;38.03;;;16.75;;
22922;SDS011;11627;51.322;22.816;2023-02-11T06:17:26;39.15;;;16.35;;
22922;SDS011;11627;51.322;22.816;2023-02-11T06:19:55;36.08;;;15.68;;
22922;SDS011;11627;51.322;22.816;2023-02-11T06:22:21;33.25;;;15.52;;
22922;SDS011;11627;51.322;22.816;2023-02-11T06:24:46;37.50;;;15.52;;
22922;SDS011;11627;51.322;22.816;2023-02-11T06:27:12;39.78;;;15.40;;
22922;SDS011;11627;51.322;22.816;2023-02-11T06:29:38;34.78;;;15.48;;
22922;SDS011;11627;51.322;22.816;2023-02-11T06:32:03;37.15;;;15.77;;
22922;SDS011;11627;51.322;22.816;2023-02-11T06:34:29;41.42;;;16.50;;
22922;SDS011;11627;51.322;22.816;2023-02-11T06:36:55;43.70;;;16.40;;
22922;SDS011;11627;51.322;22.816;2023-02-11T06:39:22;38.67;;;16.73;;
22922;SDS011;11627;51.322;22.816;2023-02-11T06:41:49;41.35;;;16.85;;
22922;SDS011;11627;51.322;22.816;2023-02-11T06:44:15;34.33;;;15.63;;
22922;SDS011;11627;51.322;22.816;2023-02-11T06:46:40;36.70;;;16.75;;
22922;SDS011;11627;51.322;22.816;2023-02-11T06:49:06;35.35;;;14.45;;
22922;SDS011;11627;51.322;22.816;2023-02-11T06:51:31;40.55;;;16.63;;
22922;SDS011;11627;51.322;22.816;2023-02-11T06:53:57;33.33;;;15.23;;
22922;SDS011;11627;51.322;22.816;2023-02-11T06:56:24;40.45;;;16.17;;
22922;SDS011;11627;51.322;22.816;2023-02-11T06:58:53;39.63;;;16.75;;
22922;SDS011;11627;51.322;22.816;2023-02-11T07:01:20;36.97;;;14.75;;
22922;SDS011;11627;51.322;22.816;2023-02-11T07:03:48;38.13;;;15.93;;
22922;SDS011;11627;51.322;22.816;2023-02-11T07:06:15;39.28;;;18.05;;
22922;SDS011;11627;51.322;22.816;2023-02-11T07:08:43;34.05;;;15.10;;
22922;SDS011;11627;51.322;22.816;2023-02-11T07:11:13;40.35;;;18.17;;
22922;SDS011;11627;51.322;22.816;2023-02-11T07:13:48;49.28;;;19.77;;
22922;SDS011;11627;51.322;22.816;2023-02-11T07:16:15;37.83;;;16.42;;
22922;SDS011;11627;51.322;22.816;2023-02-11T07:18:43;39.63;;;17.27;;
22922;SDS011;11627;51.322;22.816;2023-02-11T07:21:09;36.25;;;15.63;;
22922;SDS011;11627;51.322;22.816;2023-02-11T07:23:40;37.92;;;17.45;;
22922;SDS011;11627;51.322;22.816;2023-02-11T07:26:07;39.90;;;17.35;;
22922;SDS011;11627;51.322;22.816;2023-02-11T07:28:38;33.20;;;15.52;;
22922;SDS011;11627;51.322;22.816;2023-02-11T07:31:05;38.20;;;16.00;;
22922;SDS011;11627;51.322;22.816;2023-02-11T07:33:34;45.13;;;18.52;;
22922;SDS011;11627;51.322;22.816;2023-02-11T07:36:01;41.10;;;17.45;;
22922;SDS011;11627;51.322;22.816;2023-02-11T07:38:28;39.83;;;18.42;;
22922;SDS011;11627;51.322;22.816;2023-02-11T07:40:58;51.10;;;21.02;;
22922;SDS011;11627;51.322;22.816;2023-02-11T07:43:24;43.33;;;18.05;;
22922;SDS011;11627;51.322;22.816;2023-02-11T07:45:50;42.03;;;18.02;;
22922;SDS011;11627;51.322;22.816;2023-02-11T07:48:15;41.28;;;17.17;;
22922;SDS011;11627;51.322;22.816;2023-02-11T07:50:41;47.08;;;19.48;;
22922;SDS011;11627;51.322;22.816;2023-02-11T07:53:06;42.10;;;20.00;;
22922;SDS011;11627;51.322;22.816;2023-02-11T07:55:32;46.22;;;20.55;;
22922;SDS011;11627;51.322;22.816;2023-02-11T07:57:58;49.08;;;20.63;;
22922;SDS011;11627;51.322;22.816;2023-02-11T08:00:23;46.83;;;20.73;;
22922;SDS011;11627;51.322;22.816;2023-02-11T08:02:49;43.90;;;19.95;;
22922;SDS011;11627;51.322;22.816;2023-02-11T08:05:14;45.78;;;19.38;;
22922;SDS011;11627;51.322;22.816;2023-02-11T08:07:41;52.50;;;21.08;;
22922;SDS011;11627;51.322;22.816;2023-02-11T08:10:07;41.80;;;19.15;;
22922;SDS011;11627;51.322;22.816;2023-02-11T08:12:32;45.30;;;19.20;;
22922;SDS011;11627;51.322;22.816;2023-02-11T08:14:58;46.30;;;18.67;;
22922;SDS011;11627;51.322;22.816;2023-02-11T08:17:24;42.60;;;19.52;;
22922;SDS011;11627;51.322;22.816;2023-02-11T08:19:49;41.88;;;18.30;;
22922;SDS011;11627;51.322;22.816;2023-02-11T08:22:15;45.95;;;20.27;;
22922;SDS011;11627;51.322;22.816;2023-02-11T08:24:40;45.83;;;18.95;;
22922;SDS011;11627;51.322;22.816;2023-02-11T08:27:06;46.55;;;21.38;;
22922;SDS011;11627;51.322;22.816;2023-02-11T08:29:32;43.97;;;19.42;;
22922;SDS011;11627;51.322;22.816;2023-02-11T08:31:57;40.00;;;18.88;;
22922;SDS011;11627;51.322;22.816;2023-02-11T08:34:23;44.22;;;19.77;;
22922;SDS011;11627;51.322;22.816;2023-02-11T08:36:49;49.78;;;19.77;;
22922;SDS011;11627;51.322;22.816;2023-02-11T08:39:15;48.25;;;20.60;;
22922;SDS011;11627;51.322;22.816;2023-02-11T08:41:43;40.65;;;19.13;;
22922;SDS011;11627;51.322;22.816;2023-02-11T08:44:10;37.13;;;18.33;;
22922;SDS011;11627;51.322;22.816;2023-02-11T08:46:35;39.38;;;18.58;;
22922;SDS011;11627;51.322;22.816;2023-02-11T08:49:01;48.95;;;21.48;;
22922;SDS011;11627;51.322;22.816;2023-02-11T08:51:27;51.22;;;20.17;;
22922;SDS011;11627;51.322;22.816;2023-02-11T08:53:55;41.00;;;18.38;;
22922;SDS011;11627;51.322;22.816;2023-02-11T08:56:22;42.70;;;19.08;;
22922;SDS011;11627;51.322;22.816;2023-02-11T08:58:48;41.88;;;17.85;;
22922;SDS011;11627;51.322;22.816;2023-02-11T09:01:19;44.53;;;19.10;;
22922;SDS011;11627;51.322;22.816;2023-02-11T09:03:46;42.97;;;18.73;;
22922;SDS011;11627;51.322;22.816;2023-02-11T09:06:13;40.75;;;19.10;;
22922;SDS011;11627;51.322;22.816;2023-02-11T09:08:43;37.65;;;18.70;;
22922;SDS011;11627;51.322;22.816;2023-02-11T09:11:11;45.70;;;20.63;;
22922;SDS011;11627;51.322;22.816;2023-02-11T09:13:39;48.08;;;21.08;;
22922;SDS011;11627;51.322;22.816;2023-02-11T09:16:05;40.20;;;18.52;;
22922;SDS011;11627;51.322;22.816;2023-02-11T09:18:31;40.83;;;17.17;;
22922;SDS011;11627;51.322;22.816;2023-02-11T09:21:04;48.63;;;19.98;;
22922;SDS011;11627;51.322;22.816;2023-02-11T09:23:31;44.70;;;19.17;;
22922;SDS011;11627;51.322;22.816;2023-02-11T09:25:58;46.55;;;19.73;;
22922;SDS011;11627;51.322;22.816;2023-02-11T09:28:34;43.92;;;19.05;;
22922;SDS011;11627;51.322;22.816;2023-02-11T09:31:07;49.08;;;21.10;;
22922;SDS011;11627;51.322;22.816;2023-02-11T09:33:35;41.92;;;18.33;;
22922;SDS011;11627;51.322;22.816;2023-02-11T09:36:01;43.78;;;18.92;;
22922;SDS011;11627;51.322;22.816;2023-02-11T09:38:28;45.42;;;21.35;;
22922;SDS011;11627;51.322;22.816;2023-02-11T09:40:54;37.75;;;18.45;;
22922;SDS011;11627;51.322;22.816;2023-02-11T09:43:42;44.33;;;17.80;;
22922;SDS011;11627;51.322;22.816;2023-02-11T09:46:12;42.13;;;20.23;;
22922;SDS011;11627;51.322;22.816;2023-02-11T09:48:40;39.13;;;17.98;;
22922;SDS011;11627;51.322;22.816;2023-02-11T09:51:20;44.83;;;19.67;;
22922;SDS011;11627;51.322;22.816;2023-02-11T09:53:51;44.22;;;18.50;;
22922;SDS011;11627;51.322;22.816;2023-02-11T09:56:24;42.17;;;18.08;;
22922;SDS011;11627;51.322;22.816;2023-02-11T09:58:51;41.08;;;19.10;;
22922;SDS011;11627;51.322;22.816;2023-02-11T10:15:01;45.70;;;20.02;;
22922;SDS011;11627;51.322;22.816;2023-02-11T10:17:42;46.28;;;20.25;;
22922;SDS011;11627;51.322;22.816;2023-02-11T10:23:07;39.75;;;17.75;;
22922;SDS011;11627;51.322;22.816;2023-02-11T10:25:41;45.63;;;20.88;;
22922;SDS011;11627;51.322;22.816;2023-02-11T10:28:11;48.53;;;21.40;;
22922;SDS011;11627;51.322;22.816;2023-02-11T10:30:43;43.42;;;18.73;;
22922;SDS011;11627;51.322;22.816;2023-02-11T10:34:03;46.80;;;18.48;;
22922;SDS011;11627;51.322;22.816;2023-02-11T10:36:18;44.47;;;21.45;;
22922;SDS011;11627;51.322;22.816;2023-02-11T10:38:47;41.47;;;20.30;;
22922;SDS011;11627;51.322;22.816;2023-02-11T10:41:19;40.53;;;19.50;;
22922;SDS011;11627;51.322;22.816;2023-02-11T10:43:48;48.05;;;20.30;;
22922;SDS011;11627;51.322;22.816;2023-02-11T10:46:16;47.85;;;20.40;;
22922;SDS011;11627;51.322;22.816;2023-02-11T10:48:49;47.50;;;20.33;;
22922;SDS011;11627;51.322;22.816;2023-02-11T10:51:24;43.78;;;19.23;;
22922;SDS011;11627;51.322;22.816;2023-02-11T10:56:39;51.53;;;21.48;;
22922;SDS011;11627;51.322;22.816;2023-02-11T10:59:23;50.00;;;20.55;;
22922;SDS011;11627;51.322;22.816;2023-02-11T11:02:37;40.35;;;18.65;;
22922;SDS011;11627;51.322;22.816;2023-02-11T11:04:47;46.05;;;18.52;;
22922;SDS011;11627;51.322;22.816;2023-02-11T11:07:23;47.88;;;20.08;;
22922;SDS011;11627;51.322;22.816;2023-02-11T11:09:54;48.25;;;20.38;;
22922;SDS011;11627;51.322;22.816;2023-02-11T11:15:22;45.33;;;19.80;;
22922;SDS011;11627;51.322;22.816;2023-02-11T11:17:52;48.13;;;20.77;;
22922;SDS011;11627;51.322;22.816;2023-02-11T11:20:43;48.75;;;20.63;;
22922;SDS011;11627;51.322;22.816;2023-02-11T11:23:24;53.63;;;24.88;;
22922;SDS011;11627;51.322;22.816;2023-02-11T11:26:09;51.00;;;21.45;;
22922;SDS011;11627;51.322;22.816;2023-02-11T11:31:27;50.47;;;21.05;;
22922;SDS011;11627;51.322;22.816;2023-02-11T11:33:58;49.22;;;21.05;;
22922;SDS011;11627;51.322;22.816;2023-02-11T11:36:37;53.65;;;22.30;;
22922;SDS011;11627;51.322;22.816;2023-02-11T11:39:15;53.70;;;22.10;;
22922;SDS011;11627;51.322;22.816;2023-02-11T11:41:59;47.83;;;19.85;;
22922;SDS011;11627;51.322;22.816;2023-02-11T11:44:31;51.90;;;21.13;;
22922;SDS011;11627;51.322;22.816;2023-02-11T11:49:38;44.03;;;21.58;;
22922;SDS011;11627;51.322;22.816;2023-02-11T11:57:39;48.92;;;23.73;;
22922;SDS011;11627;51.322;22.816;2023-02-11T12:19:15;49.72;;;21.02;;
22922;SDS011;11627;51.322;22.816;2023-02-11T12:30:44;57.03;;;25.52;;
22922;SDS011;11627;51.322;22.816;2023-02-11T12:44:49;66.22;;;28.65;;
22922;SDS011;11627;51.322;22.816;2023-02-11T12:52:39;57.63;;;26.23;;
22922;SDS011;11627;51.322;22.816;2023-02-11T12:55:27;56.15;;;24.73;;
22922;SDS011;11627;51.322;22.816;2023-02-11T12:58:00;59.63;;;26.00;;
22922;SDS011;11627;51.322;22.816;2023-02-11T13:00:44;55.63;;;24.48;;
22922;SDS011;11627;51.322;22.816;2023-02-11T13:03:24;57.55;;;25.85;;
22922;SDS011;11627;51.322;22.816;2023-02-11T13:05:57;58.78;;;24.52;;
22922;SDS011;11627;51.322;22.816;2023-02-11T13:08:31;55.17;;;24.08;;
22922;SDS011;11627;51.322;22.816;2023-02-11T13:11:01;50.95;;;23.05;;
22922;SDS011;11627;51.322;22.816;2023-02-11T13:13:32;49.38;;;23.45;;
22922;SDS011;11627;51.322;22.816;2023-02-11T13:16:06;54.92;;;25.70;;
22922;SDS011;11627;51.322;22.816;2023-02-11T13:37:53;53.42;;;24.02;;
22922;SDS011;11627;51.322;22.816;2023-02-11T13:40:23;53.70;;;25.60;;
22922;SDS011;11627;51.322;22.816;2023-02-11T13:42:58;57.95;;;28.33;;
22922;SDS011;11627;51.322;22.816;2023-02-11T13:45:39;54.58;;;24.92;;
22922;SDS011;11627;51.322;22.816;2023-02-11T13:48:15;53.53;;;23.23;;
22922;SDS011;11627;51.322;22.816;2023-02-11T13:50:45;52.88;;;23.38;;
22922;SDS011;11627;51.322;22.816;2023-02-11T13:53:14;54.03;;;25.20;;
22922;SDS011;11627;51.322;22.816;2023-02-11T13:55:42;55.72;;;24.77;;
22922;SDS011;11627;51.322;22.816;2023-02-11T14:09:01;49.78;;;24.65;;
22922;SDS011;11627;51.322;22.816;2023-02-11T14:17:42;47.13;;;22.95;;
22922;SDS011;11627;51.322;22.816;2023-02-11T14:20:31;52.05;;;25.15;;
22922;SDS011;11627;51.322;22.816;2023-02-11T14:23:00;57.90;;;26.17;;
22922;SDS011;11627;51.322;22.816;2023-02-11T14:25:26;52.20;;;24.58;;
22922;SDS011;11627;51.322;22.816;2023-02-11T14:27:57;51.70;;;23.40;;
22922;SDS011;11627;51.322;22.816;2023-02-11T14:41:42;49.75;;;24.35;;
22922;SDS011;11627;51.322;22.816;2023-02-11T14:44:15;41.95;;;19.20;;
22922;SDS011;11627;51.322;22.816;2023-02-11T14:46:51;41.08;;;19.30;;
22922;SDS011;11627;51.322;22.816;2023-02-11T14:49:32;37.97;;;18.00;;
22922;SDS011;11627;51.322;22.816;2023-02-11T14:54:51;42.10;;;21.08;;
22922;SDS011;11627;51.322;22.816;2023-02-11T14:57:42;46.08;;;23.67;;
22922;SDS011;11627;51.322;22.816;2023-02-11T15:00:15;51.90;;;22.58;;
22922;SDS011;11627;51.322;22.816;2023-02-11T15:02:43;50.95;;;22.10;;
22922;SDS011;11627;51.322;22.816;2023-02-11T15:05:12;42.70;;;20.95;;
22922;SDS011;11627;51.322;22.816;2023-02-11T15:07:41;42.67;;;22.05;;
22922;SDS011;11627;51.322;22.816;2023-02-11T15:10:14;46.65;;;25.38;;
22922;SDS011;11627;51.322;22.816;2023-02-11T15:12:52;46.47;;;21.65;;
22922;SDS011;11627;51.322;22.816;2023-02-11T15:15:18;52.75;;;22.30;;
22922;SDS011;11627;51.322;22.816;2023-02-11T15:17:44;47.30;;;22.25;;
22922;SDS011;11627;51.322;22.816;2023-02-11T15:20:21;39.88;;;18.92;;
22922;SDS011;11627;51.322;22.816;2023-02-11T15:22:56;44.70;;;21.15;;
22922;SDS011;11627;51.322;22.816;2023-02-11T15:25:26;44.90;;;21.77;;
22922;SDS011;11627;51.322;22.816;2023-02-11T15:27:55;43.42;;;19.48;;
22922;SDS011;11627;51.322;22.816;2023-02-11T15:30:26;42.47;;;21.13;;
22922;SDS011;11627;51.322;22.816;2023-02-11T15:32:55;40.47;;;20.45;;
22922;SDS011;11627;51.322;22.816;2023-02-11T15:35:34;44.85;;;21.20;;
22922;SDS011;11627;51.322;22.816;2023-02-11T15:38:02;47.55;;;22.33;;
22922;SDS011;11627;51.322;22.816;2023-02-11T15:40:30;47.97;;;26.38;;
22922;SDS011;11627;51.322;22.816;2023-02-11T15:42:58;50.22;;;21.17;;
22922;SDS011;11627;51.322;22.816;2023-02-11T15:45:29;46.70;;;22.08;;
22922;SDS011;11627;51.322;22.816;2023-02-11T15:48:06;50.13;;;27.55;;
22922;SDS011;11627;51.322;22.816;2023-02-11T15:50:52;46.25;;;25.25;;
22922;SDS011;11627;51.322;22.816;2023-02-11T15:53:24;46.75;;;21.80;;
22922;SDS011;11627;51.322;22.816;2023-02-11T15:56:16;53.63;;;25.45;;
22922;SDS011;11627;51.322;22.816;2023-02-11T15:58:54;36.53;;;18.38;;
22922;SDS011;11627;51.322;22.816;2023-02-11T16:01:27;45.40;;;22.73;;
22922;SDS011;11627;51.322;22.816;2023-02-11T16:03:57;47.13;;;22.20;;
22922;SDS011;11627;51.322;22.816;2023-02-11T16:06:33;46.22;;;24.23;;
22922;SDS011;11627;51.322;22.816;2023-02-11T16:14:20;51.20;;;24.15;;
22922;SDS011;11627;51.322;22.816;2023-02-11T16:16:57;42.17;;;20.30;;
22922;SDS011;11627;51.322;22.816;2023-02-11T16:19:26;41.78;;;20.00;;
22922;SDS011;11627;51.322;22.816;2023-02-11T16:21:53;45.92;;;22.65;;
22922;SDS011;11627;51.322;22.816;2023-02-11T16:24:26;50.83;;;26.17;;
22922;SDS011;11627;51.322;22.816;2023-02-11T16:26:58;50.05;;;23.33;;
22922;SDS011;11627;51.322;22.816;2023-02-11T16:29:28;44.47;;;19.63;;
22922;SDS011;11627;51.322;22.816;2023-02-11T16:32:04;43.47;;;23.40;;
22922;SDS011;11627;51.322;22.816;2023-02-11T16:34:41;43.47;;;22.30;;
22922;SDS011;11627;51.322;22.816;2023-02-11T16:37:08;42.30;;;22.00;;
22922;SDS011;11627;51.322;22.816;2023-02-11T16:39:35;40.47;;;19.42;;
22922;SDS011;11627;51.322;22.816;2023-02-11T16:42:02;45.47;;;21.73;;
22922;SDS011;11627;51.322;22.816;2023-02-11T16:44:32;45.60;;;21.90;;
22922;SDS011;11627;51.322;22.816;2023-02-11T16:46:59;49.75;;;24.00;;
22922;SDS011;11627;51.322;22.816;2023-02-11T16:49:30;44.47;;;23.40;;
22922;SDS011;11627;51.322;22.816;2023-02-11T16:52:04;49.15;;;22.40;;
22922;SDS011;11627;51.322;22.816;2023-02-11T16:54:33;49.05;;;27.23;;
22922;SDS011;11627;51.322;22.816;2023-02-11T16:56:59;55.75;;;27.13;;
22922;SDS011;11627;51.322;22.816;2023-02-11T16:59:25;47.25;;;23.92;;
22922;SDS011;11627;51.322;22.816;2023-02-11T17:01:51;48.22;;;24.13;;
22922;SDS011;11627;51.322;22.816;2023-02-11T17:04:19;46.80;;;23.13;;
22922;SDS011;11627;51.322;22.816;2023-02-11T17:06:48;51.25;;;27.33;;
22922;SDS011;11627;51.322;22.816;2023-02-11T17:09:18;49.83;;;26.05;;